Terminal Aerodrome Forecast
Issued by NWS Sterling, VA

Current Version | Previous Version | Graphics & Text | Print | Product List | Glossary On
Versions: 1 2 3 4 5 6 7 8 9 10 11 12 13 14 15 16 17
000
FTUS41 KLWX 281100
TAFMRB
TAF
KMRB 281138Z 2812/2912 30008KT P6SM BKN040
     FM281300 32010G18KT P6SM SCT100
     FM282200 28004KT P6SM SCT100
     FM290000 00000KT P6SM BKN080=

USA.gov is the U.S. government's official web portal to all federal, state and local government web resources and services.